sensor_id;sensor_type;location;lat;lon;timestamp;temperature;humidity
61092;DHT22;46975;51.898;11.444;2022-07-21T00:00:27;23.80;66.20
61092;DHT22;46975;51.898;11.444;2022-07-21T00:02:53;23.80;67.20
61092;DHT22;46975;51.898;11.444;2022-07-21T00:05:19;23.90;67.90
61092;DHT22;46975;51.898;11.444;2022-07-21T00:07:45;23.90;69.50
61092;DHT22;46975;51.898;11.444;2022-07-21T00:10:11;23.90;69.70
61092;DHT22;46975;51.898;11.444;2022-07-21T00:12:37;24.00;70.10
61092;DHT22;46975;51.898;11.444;2022-07-21T00:15:04;24.00;71.10
61092;DHT22;46975;51.898;11.444;2022-07-21T00:17:30;24.10;77.80
61092;DHT22;46975;51.898;11.444;2022-07-21T00:19:56;24.30;82.40
61092;DHT22;46975;51.898;11.444;2022-07-21T00:22:22;24.30;85.00
61092;DHT22;46975;51.898;11.444;2022-07-21T00:24:47;24.40;87.30
61092;DHT22;46975;51.898;11.444;2022-07-21T00:27:13;24.40;89.20
61092;DHT22;46975;51.898;11.444;2022-07-21T00:29:38;24.30;90.70
61092;DHT22;46975;51.898;11.444;2022-07-21T00:32:04;24.30;92.10
61092;DHT22;46975;51.898;11.444;2022-07-21T00:34:31;24.20;91.40
61092;DHT22;46975;51.898;11.444;2022-07-21T00:36:57;24.10;91.80
61092;DHT22;46975;51.898;11.444;2022-07-21T00:39:23;24.00;91.80
61092;DHT22;46975;51.898;11.444;2022-07-21T00:41:48;24.00;91.60
61092;DHT22;46975;51.898;11.444;2022-07-21T00:44:26;23.90;90.30
61092;DHT22;46975;51.898;11.444;2022-07-21T00:46:52;24.00;87.20
61092;DHT22;46975;51.898;11.444;2022-07-21T00:49:18;24.10;84.70
61092;DHT22;46975;51.898;11.444;2022-07-21T00:51:45;24.10;83.70
61092;DHT22;46975;51.898;11.444;2022-07-21T00:54:14;24.10;83.30
61092;DHT22;46975;51.898;11.444;2022-07-21T00:56:40;24.10;82.50
61092;DHT22;46975;51.898;11.444;2022-07-21T00:59:06;24.10;83.60
61092;DHT22;46975;51.898;11.444;2022-07-21T01:01:32;24.00;83.10
61092;DHT22;46975;51.898;11.444;2022-07-21T01:03:58;24.00;82.60
61092;DHT22;46975;51.898;11.444;2022-07-21T01:06:24;24.00;81.80
61092;DHT22;46975;51.898;11.444;2022-07-21T01:08:54;24.00;82.10
61092;DHT22;46975;51.898;11.444;2022-07-21T01:11:21;24.00;81.60
61092;DHT22;46975;51.898;11.444;2022-07-21T01:13:49;24.00;82.10
61092;DHT22;46975;51.898;11.444;2022-07-21T01:16:14;24.00;82.40
61092;DHT22;46975;51.898;11.444;2022-07-21T01:18:40;23.90;82.40
61092;DHT22;46975;51.898;11.444;2022-07-21T01:23:46;23.80;83.20
61092;DHT22;46975;51.898;11.444;2022-07-21T01:26:12;23.80;83.40
61092;DHT22;46975;51.898;11.444;2022-07-21T01:28:37;23.70;84.00
61092;DHT22;46975;51.898;11.444;2022-07-21T01:31:03;23.70;84.10
61092;DHT22;46975;51.898;11.444;2022-07-21T01:33:28;23.70;84.50
61092;DHT22;46975;51.898;11.444;2022-07-21T01:35:54;23.70;83.60
61092;DHT22;46975;51.898;11.444;2022-07-21T01:38:20;23.70;83.30
61092;DHT22;46975;51.898;11.444;2022-07-21T01:41:04;23.70;84.30
61092;DHT22;46975;51.898;11.444;2022-07-21T01:43:48;23.70;84.40
61092;DHT22;46975;51.898;11.444;2022-07-21T01:46:13;23.80;85.00
61092;DHT22;46975;51.898;11.444;2022-07-21T01:48:43;23.80;85.30
61092;DHT22;46975;51.898;11.444;2022-07-21T01:51:09;23.80;85.60
61092;DHT22;46975;51.898;11.444;2022-07-21T01:53:35;23.80;85.60
61092;DHT22;46975;51.898;11.444;2022-07-21T01:56:01;23.80;86.40
61092;DHT22;46975;51.898;11.444;2022-07-21T01:58:27;23.80;88.00
61092;DHT22;46975;51.898;11.444;2022-07-21T02:00:52;23.80;88.40
61092;DHT22;46975;51.898;11.444;2022-07-21T02:03:18;23.80;90.50
61092;DHT22;46975;51.898;11.444;2022-07-21T02:05:43;23.90;90.60
61092;DHT22;46975;51.898;11.444;2022-07-21T02:08:09;23.90;91.10
61092;DHT22;46975;51.898;11.444;2022-07-21T02:10:34;24.00;91.40
61092;DHT22;46975;51.898;11.444;2022-07-21T02:13:01;23.90;92.20
61092;DHT22;46975;51.898;11.444;2022-07-21T02:15:29;24.00;92.50
61092;DHT22;46975;51.898;11.444;2022-07-21T02:17:55;23.90;92.40
61092;DHT22;46975;51.898;11.444;2022-07-21T02:20:21;24.00;92.90
61092;DHT22;46975;51.898;11.444;2022-07-21T02:22:46;23.90;93.50
61092;DHT22;46975;51.898;11.444;2022-07-21T02:25:13;24.00;94.10
61092;DHT22;46975;51.898;11.444;2022-07-21T02:27:40;23.90;94.40
61092;DHT22;46975;51.898;11.444;2022-07-21T02:30:06;23.90;95.20
61092;DHT22;46975;51.898;11.444;2022-07-21T02:32:31;23.90;95.50
61092;DHT22;46975;51.898;11.444;2022-07-21T02:34:57;23.80;95.80
61092;DHT22;46975;51.898;11.444;2022-07-21T02:37:24;23.90;95.90
61092;DHT22;46975;51.898;11.444;2022-07-21T02:39:49;23.80;96.20
61092;DHT22;46975;51.898;11.444;2022-07-21T02:42:15;23.80;96.00
61092;DHT22;46975;51.898;11.444;2022-07-21T02:44:40;23.70;96.50
61092;DHT22;46975;51.898;11.444;2022-07-21T02:47:06;23.60;97.00
61092;DHT22;46975;51.898;11.444;2022-07-21T02:49:32;23.60;97.70
61092;DHT22;46975;51.898;11.444;2022-07-21T02:51:57;23.60;97.60
61092;DHT22;46975;51.898;11.444;2022-07-21T02:54:23;23.60;97.60
61092;DHT22;46975;51.898;11.444;2022-07-21T02:56:49;23.60;97.80
61092;DHT22;46975;51.898;11.444;2022-07-21T02:59:14;23.60;98.20
61092;DHT22;46975;51.898;11.444;2022-07-21T03:01:40;23.50;98.90
61092;DHT22;46975;51.898;11.444;2022-07-21T03:04:06;23.40;99.50
61092;DHT22;46975;51.898;11.444;2022-07-21T03:06:32;23.40;99.90
61092;DHT22;46975;51.898;11.444;2022-07-21T03:08:58;23.40;99.90
61092;DHT22;46975;51.898;11.444;2022-07-21T03:11:23;23.30;99.90
61092;DHT22;46975;51.898;11.444;2022-07-21T03:13:49;23.30;99.90
61092;DHT22;46975;51.898;11.444;2022-07-21T03:16:15;23.30;99.90
61092;DHT22;46975;51.898;11.444;2022-07-21T03:18:40;23.30;99.90
61092;DHT22;46975;51.898;11.444;2022-07-21T03:21:07;23.30;99.90
61092;DHT22;46975;51.898;11.444;2022-07-21T03:23:32;23.20;99.90
61092;DHT22;46975;51.898;11.444;2022-07-21T03:25:58;23.20;99.90
61092;DHT22;46975;51.898;11.444;2022-07-21T03:28:24;23.10;99.90
61092;DHT22;46975;51.898;11.444;2022-07-21T03:30:49;23.10;99.90
61092;DHT22;46975;51.898;11.444;2022-07-21T03:33:15;23.20;99.90
61092;DHT22;46975;51.898;11.444;2022-07-21T03:35:40;23.10;99.90
61092;DHT22;46975;51.898;11.444;2022-07-21T03:38:07;23.10;99.90
61092;DHT22;46975;51.898;11.444;2022-07-21T03:40:35;23.10;99.90
61092;DHT22;46975;51.898;11.444;2022-07-21T03:43:03;23.10;99.90
61092;DHT22;46975;51.898;11.444;2022-07-21T03:45:30;23.20;99.90
61092;DHT22;46975;51.898;11.444;2022-07-21T03:48:00;23.10;99.90
61092;DHT22;46975;51.898;11.444;2022-07-21T03:50:27;23.10;99.90
61092;DHT22;46975;51.898;11.444;2022-07-21T03:52:53;23.10;99.90
61092;DHT22;46975;51.898;11.444;2022-07-21T03:55:19;23.10;99.90
61092;DHT22;46975;51.898;11.444;2022-07-21T03:57:47;23.10;99.90
61092;DHT22;46975;51.898;11.444;2022-07-21T04:00:25;23.10;99.90
61092;DHT22;46975;51.898;11.444;2022-07-21T04:02:51;23.00;99.90
61092;DHT22;46975;51.898;11.444;2022-07-21T04:05:17;23.10;99.90
61092;DHT22;46975;51.898;11.444;2022-07-21T04:07:44;23.10;99.90
61092;DHT22;46975;51.898;11.444;2022-07-21T04:10:12;23.20;99.90
61092;DHT22;46975;51.898;11.444;2022-07-21T04:12:38;23.30;99.90
61092;DHT22;46975;51.898;11.444;2022-07-21T04:15:06;23.30;99.90
61092;DHT22;46975;51.898;11.444;2022-07-21T04:17:32;23.40;99.90
61092;DHT22;46975;51.898;11.444;2022-07-21T04:19:57;23.40;99.90
61092;DHT22;46975;51.898;11.444;2022-07-21T04:22:23;23.40;99.90
61092;DHT22;46975;51.898;11.444;2022-07-21T04:24:48;23.40;99.90
61092;DHT22;46975;51.898;11.444;2022-07-21T04:27:14;23.40;99.90
61092;DHT22;46975;51.898;11.444;2022-07-21T04:29:40;23.40;99.90
61092;DHT22;46975;51.898;11.444;2022-07-21T04:32:05;23.50;99.90
61092;DHT22;46975;51.898;11.444;2022-07-21T04:34:31;23.60;99.90
61092;DHT22;46975;51.898;11.444;2022-07-21T04:36:56;23.60;99.90
61092;DHT22;46975;51.898;11.444;2022-07-21T04:39:22;23.60;99.90
61092;DHT22;46975;51.898;11.444;2022-07-21T04:41:48;23.70;99.90
61092;DHT22;46975;51.898;11.444;2022-07-21T04:44:13;23.70;99.90
61092;DHT22;46975;51.898;11.444;2022-07-21T04:46:39;23.70;99.90
61092;DHT22;46975;51.898;11.444;2022-07-21T04:49:05;23.80;99.90
61092;DHT22;46975;51.898;11.444;2022-07-21T04:51:30;23.80;99.90
61092;DHT22;46975;51.898;11.444;2022-07-21T04:53:56;23.90;99.90
61092;DHT22;46975;51.898;11.444;2022-07-21T04:56:22;23.90;99.90
61092;DHT22;46975;51.898;11.444;2022-07-21T04:58:47;23.90;99.90
61092;DHT22;46975;51.898;11.444;2022-07-21T05:01:13;23.90;99.90
61092;DHT22;46975;51.898;11.444;2022-07-21T05:03:39;23.90;99.90
61092;DHT22;46975;51.898;11.444;2022-07-21T05:06:04;23.90;99.90
61092;DHT22;46975;51.898;11.444;2022-07-21T05:08:30;23.90;99.90
61092;DHT22;46975;51.898;11.444;2022-07-21T05:10:56;23.90;99.90
61092;DHT22;46975;51.898;11.444;2022-07-21T05:13:21;23.90;99.90
61092;DHT22;46975;51.898;11.444;2022-07-21T05:15:47;23.80;99.90
61092;DHT22;46975;51.898;11.444;2022-07-21T05:18:13;23.80;99.90
61092;DHT22;46975;51.898;11.444;2022-07-21T05:20:38;23.80;99.90
61092;DHT22;46975;51.898;11.444;2022-07-21T05:23:04;23.80;99.90
61092;DHT22;46975;51.898;11.444;2022-07-21T05:25:30;23.80;99.90
61092;DHT22;46975;51.898;11.444;2022-07-21T05:27:57;23.80;99.90
61092;DHT22;46975;51.898;11.444;2022-07-21T05:30:23;23.90;99.90
61092;DHT22;46975;51.898;11.444;2022-07-21T05:32:48;23.90;99.90
61092;DHT22;46975;51.898;11.444;2022-07-21T05:35:15;23.80;99.90
61092;DHT22;46975;51.898;11.444;2022-07-21T05:37:41;23.80;99.90
61092;DHT22;46975;51.898;11.444;2022-07-21T05:40:08;23.60;99.90
61092;DHT22;46975;51.898;11.444;2022-07-21T05:42:35;23.70;99.90
61092;DHT22;46975;51.898;11.444;2022-07-21T05:45:00;23.70;99.90
61092;DHT22;46975;51.898;11.444;2022-07-21T05:47:28;23.70;99.90
61092;DHT22;46975;51.898;11.444;2022-07-21T05:49:54;23.70;99.90
61092;DHT22;46975;51.898;11.444;2022-07-21T05:52:20;23.60;99.90
61092;DHT22;46975;51.898;11.444;2022-07-21T05:54:45;23.50;99.90
61092;DHT22;46975;51.898;11.444;2022-07-21T05:57:11;23.50;99.90
61092;DHT22;46975;51.898;11.444;2022-07-21T05:59:37;23.50;99.90
61092;DHT22;46975;51.898;11.444;2022-07-21T06:02:03;23.40;99.90
61092;DHT22;46975;51.898;11.444;2022-07-21T06:04:29;23.50;99.90
61092;DHT22;46975;51.898;11.444;2022-07-21T06:06:54;23.40;99.90
61092;DHT22;46975;51.898;11.444;2022-07-21T06:09:20;23.30;99.90
61092;DHT22;46975;51.898;11.444;2022-07-21T06:11:47;23.10;99.90
61092;DHT22;46975;51.898;11.444;2022-07-21T06:14:12;23.00;99.90
61092;DHT22;46975;51.898;11.444;2022-07-21T06:16:38;23.00;99.90
61092;DHT22;46975;51.898;11.444;2022-07-21T06:19:05;23.00;99.90
61092;DHT22;46975;51.898;11.444;2022-07-21T06:21:32;23.00;99.90
61092;DHT22;46975;51.898;11.444;2022-07-21T06:23:58;22.90;99.90
61092;DHT22;46975;51.898;11.444;2022-07-21T06:26:23;22.90;99.90
61092;DHT22;46975;51.898;11.444;2022-07-21T06:28:49;22.80;99.90
61092;DHT22;46975;51.898;11.444;2022-07-21T06:31:15;22.90;99.90
61092;DHT22;46975;51.898;11.444;2022-07-21T06:33:40;23.10;99.90
61092;DHT22;46975;51.898;11.444;2022-07-21T06:36:07;23.40;99.90
61092;DHT22;46975;51.898;11.444;2022-07-21T06:38:33;23.70;99.90
61092;DHT22;46975;51.898;11.444;2022-07-21T06:40:58;24.00;99.90
61092;DHT22;46975;51.898;11.444;2022-07-21T06:43:24;24.30;99.90
61092;DHT22;46975;51.898;11.444;2022-07-21T06:45:49;24.60;99.90
61092;DHT22;46975;51.898;11.444;2022-07-21T06:48:16;24.80;99.90
61092;DHT22;46975;51.898;11.444;2022-07-21T06:50:42;25.00;99.90
61092;DHT22;46975;51.898;11.444;2022-07-21T06:53:08;25.00;99.90
61092;DHT22;46975;51.898;11.444;2022-07-21T06:55:34;24.90;99.90
61092;DHT22;46975;51.898;11.444;2022-07-21T06:58:17;24.90;99.90
61092;DHT22;46975;51.898;11.444;2022-07-21T07:00:44;25.10;99.90
61092;DHT22;46975;51.898;11.444;2022-07-21T07:03:10;25.30;99.90
61092;DHT22;46975;51.898;11.444;2022-07-21T07:05:36;25.30;99.90
61092;DHT22;46975;51.898;11.444;2022-07-21T07:08:03;25.60;99.90
61092;DHT22;46975;51.898;11.444;2022-07-21T07:10:28;25.40;99.90
61092;DHT22;46975;51.898;11.444;2022-07-21T07:12:54;25.30;99.90
61092;DHT22;46975;51.898;11.444;2022-07-21T07:15:24;24.90;99.90
61092;DHT22;46975;51.898;11.444;2022-07-21T07:17:51;25.00;99.90
61092;DHT22;46975;51.898;11.444;2022-07-21T07:20:17;25.10;99.90
61092;DHT22;46975;51.898;11.444;2022-07-21T07:22:43;24.80;99.90
61092;DHT22;46975;51.898;11.444;2022-07-21T07:25:09;24.70;99.90
61092;DHT22;46975;51.898;11.444;2022-07-21T07:27:35;24.50;99.90
61092;DHT22;46975;51.898;11.444;2022-07-21T07:30:02;24.60;99.90
61092;DHT22;46975;51.898;11.444;2022-07-21T07:32:28;24.60;99.90
61092;DHT22;46975;51.898;11.444;2022-07-21T07:34:53;24.50;99.90
61092;DHT22;46975;51.898;11.444;2022-07-21T07:37:19;24.50;99.90
61092;DHT22;46975;51.898;11.444;2022-07-21T07:39:45;24.80;99.90
61092;DHT22;46975;51.898;11.444;2022-07-21T07:42:10;25.10;99.90
61092;DHT22;46975;51.898;11.444;2022-07-21T07:44:36;25.30;99.90
61092;DHT22;46975;51.898;11.444;2022-07-21T07:47:02;25.30;99.90
61092;DHT22;46975;51.898;11.444;2022-07-21T07:49:31;25.30;99.90
61092;DHT22;46975;51.898;11.444;2022-07-21T07:51:57;25.40;99.90
61092;DHT22;46975;51.898;11.444;2022-07-21T07:54:23;25.40;99.90
61092;DHT22;46975;51.898;11.444;2022-07-21T07:56:49;25.50;99.90
61092;DHT22;46975;51.898;11.444;2022-07-21T07:59:14;25.50;99.90
61092;DHT22;46975;51.898;11.444;2022-07-21T08:01:40;25.50;99.90
61092;DHT22;46975;51.898;11.444;2022-07-21T08:04:06;25.50;99.90
61092;DHT22;46975;51.898;11.444;2022-07-21T08:06:31;25.60;99.90
61092;DHT22;46975;51.898;11.444;2022-07-21T08:08:58;25.50;99.90
61092;DHT22;46975;51.898;11.444;2022-07-21T08:11:24;25.40;99.90
61092;DHT22;46975;51.898;11.444;2022-07-21T08:13:50;25.70;99.90
61092;DHT22;46975;51.898;11.444;2022-07-21T08:16:16;25.50;99.90
61092;DHT22;46975;51.898;11.444;2022-07-21T08:18:42;25.50;99.90
61092;DHT22;46975;51.898;11.444;2022-07-21T08:21:09;25.40;99.90
61092;DHT22;46975;51.898;11.444;2022-07-21T08:23:35;25.50;99.90
61092;DHT22;46975;51.898;11.444;2022-07-21T08:26:00;25.30;99.90
61092;DHT22;46975;51.898;11.444;2022-07-21T08:28:26;25.50;99.90
61092;DHT22;46975;51.898;11.444;2022-07-21T08:30:51;25.90;99.90
61092;DHT22;46975;51.898;11.444;2022-07-21T08:33:17;26.20;99.90
61092;DHT22;46975;51.898;11.444;2022-07-21T08:35:43;26.60;99.90
61092;DHT22;46975;51.898;11.444;2022-07-21T08:38:09;27.40;99.90
61092;DHT22;46975;51.898;11.444;2022-07-21T08:40:39;27.50;99.90
61092;DHT22;46975;51.898;11.444;2022-07-21T08:43:06;27.00;99.90
61092;DHT22;46975;51.898;11.444;2022-07-21T08:45:34;27.00;99.90
61092;DHT22;46975;51.898;11.444;2022-07-21T08:48:00;27.20;99.90
61092;DHT22;46975;51.898;11.444;2022-07-21T08:50:38;27.20;99.90
61092;DHT22;46975;51.898;11.444;2022-07-21T08:53:04;26.90;99.90
61092;DHT22;46975;51.898;11.444;2022-07-21T08:55:36;27.10;99.90
61092;DHT22;46975;51.898;11.444;2022-07-21T08:58:03;27.90;99.90
61092;DHT22;46975;51.898;11.444;2022-07-21T09:00:29;28.20;99.90
61092;DHT22;46975;51.898;11.444;2022-07-21T09:05:43;29.00;99.90
61092;DHT22;46975;51.898;11.444;2022-07-21T09:08:29;28.80;99.90
61092;DHT22;46975;51.898;11.444;2022-07-21T09:11:11;28.50;99.90
61092;DHT22;46975;51.898;11.444;2022-07-21T09:13:37;27.90;99.90
61092;DHT22;46975;51.898;11.444;2022-07-21T09:16:04;28.00;99.90
61092;DHT22;46975;51.898;11.444;2022-07-21T09:18:29;28.10;99.90
61092;DHT22;46975;51.898;11.444;2022-07-21T09:20:55;28.40;99.90
61092;DHT22;46975;51.898;11.444;2022-07-21T09:23:23;28.80;99.90
61092;DHT22;46975;51.898;11.444;2022-07-21T09:25:51;29.20;99.90
61092;DHT22;46975;51.898;11.444;2022-07-21T09:35:59;27.90;99.90
61092;DHT22;46975;51.898;11.444;2022-07-21T09:38:26;27.70;99.90
61092;DHT22;46975;51.898;11.444;2022-07-21T09:40:52;27.60;99.90
61092;DHT22;46975;51.898;11.444;2022-07-21T09:43:48;27.80;99.90
61092;DHT22;46975;51.898;11.444;2022-07-21T09:46:19;28.00;99.90
61092;DHT22;46975;51.898;11.444;2022-07-21T09:48:50;27.80;99.90
61092;DHT22;46975;51.898;11.444;2022-07-21T09:51:31;27.40;99.90
61092;DHT22;46975;51.898;11.444;2022-07-21T09:54:06;27.70;99.90
61092;DHT22;46975;51.898;11.444;2022-07-21T09:56:38;28.70;99.90
61092;DHT22;46975;51.898;11.444;2022-07-21T09:59:05;30.10;99.90
61092;DHT22;46975;51.898;11.444;2022-07-21T10:01:32;30.90;99.90
61092;DHT22;46975;51.898;11.444;2022-07-21T10:03:59;30.30;99.80
61092;DHT22;46975;51.898;11.444;2022-07-21T10:06:28;30.00;99.90
61092;DHT22;46975;51.898;11.444;2022-07-21T10:08:56;29.30;99.90
61092;DHT22;46975;51.898;11.444;2022-07-21T10:11:23;30.30;99.90
61092;DHT22;46975;51.898;11.444;2022-07-21T10:13:49;31.50;98.50
61092;DHT22;46975;51.898;11.444;2022-07-21T10:16:16;31.80;97.30
61092;DHT22;46975;51.898;11.444;2022-07-21T10:19:03;32.50;94.30
61092;DHT22;46975;51.898;11.444;2022-07-21T10:24:03;33.40;92.10
61092;DHT22;46975;51.898;11.444;2022-07-21T10:26:30;32.70;91.00
61092;DHT22;46975;51.898;11.444;2022-07-21T10:28:56;31.10;93.00
61092;DHT22;46975;51.898;11.444;2022-07-21T10:31:24;29.70;95.60
61092;DHT22;46975;51.898;11.444;2022-07-21T10:33:53;29.00;98.70
61092;DHT22;46975;51.898;11.444;2022-07-21T10:36:39;29.60;98.40
61092;DHT22;46975;51.898;11.444;2022-07-21T10:41:40;30.80;94.60
61092;DHT22;46975;51.898;11.444;2022-07-21T10:47:13;29.90;95.70
61092;DHT22;46975;51.898;11.444;2022-07-21T10:49:59;29.80;96.90
61092;DHT22;46975;51.898;11.444;2022-07-21T10:55:27;28.90;95.60
61092;DHT22;46975;51.898;11.444;2022-07-21T11:03:34;28.80;98.70
61092;DHT22;46975;51.898;11.444;2022-07-21T11:08:51;29.10;99.50
61092;DHT22;46975;51.898;11.444;2022-07-21T11:11:26;29.80;99.20
61092;DHT22;46975;51.898;11.444;2022-07-21T11:14:17;30.80;97.50
61092;DHT22;46975;51.898;11.444;2022-07-21T11:19:43;31.10;92.80
61092;DHT22;46975;51.898;11.444;2022-07-21T11:24:39;32.00;91.00
61092;DHT22;46975;51.898;11.444;2022-07-21T11:27:09;32.40;90.40
61092;DHT22;46975;51.898;11.444;2022-07-21T11:29:37;32.50;87.00
61092;DHT22;46975;51.898;11.444;2022-07-21T11:32:04;32.20;87.50
61092;DHT22;46975;51.898;11.444;2022-07-21T11:34:49;31.90;89.10
61092;DHT22;46975;51.898;11.444;2022-07-21T11:37:17;31.70;87.70
61092;DHT22;46975;51.898;11.444;2022-07-21T11:39:43;31.10;87.50
61092;DHT22;46975;51.898;11.444;2022-07-21T11:42:12;30.70;88.00
61092;DHT22;46975;51.898;11.444;2022-07-21T11:44:40;30.20;88.40
61092;DHT22;46975;51.898;11.444;2022-07-21T11:47:06;29.70;91.60
61092;DHT22;46975;51.898;11.444;2022-07-21T11:49:34;30.20;89.80
61092;DHT22;46975;51.898;11.444;2022-07-21T11:52:02;31.10;85.50
61092;DHT22;46975;51.898;11.444;2022-07-21T11:54:35;32.10;85.40
61092;DHT22;46975;51.898;11.444;2022-07-21T11:57:07;32.70;75.70
61092;DHT22;46975;51.898;11.444;2022-07-21T11:59:34;31.90;72.70
61092;DHT22;46975;51.898;11.444;2022-07-21T12:02:04;31.30;74.60
61092;DHT22;46975;51.898;11.444;2022-07-21T12:04:50;30.80;74.20
61092;DHT22;46975;51.898;11.444;2022-07-21T12:10:14;30.70;79.10
61092;DHT22;46975;51.898;11.444;2022-07-21T12:12:46;30.10;93.40
61092;DHT22;46975;51.898;11.444;2022-07-21T12:15:24;30.30;96.30
61092;DHT22;46975;51.898;11.444;2022-07-21T12:17:57;30.40;95.90
61092;DHT22;46975;51.898;11.444;2022-07-21T12:20:34;29.90;97.00
61092;DHT22;46975;51.898;11.444;2022-07-21T12:23:06;29.50;97.20
61092;DHT22;46975;51.898;11.444;2022-07-21T12:25:42;29.30;97.80
61092;DHT22;46975;51.898;11.444;2022-07-21T12:28:08;29.40;99.30
61092;DHT22;46975;51.898;11.444;2022-07-21T12:33:27;29.20;99.50
61092;DHT22;46975;51.898;11.444;2022-07-21T12:36:04;29.00;99.70
61092;DHT22;46975;51.898;11.444;2022-07-21T12:38:44;29.70;99.90
61092;DHT22;46975;51.898;11.444;2022-07-21T12:41:15;30.80;97.00
61092;DHT22;46975;51.898;11.444;2022-07-21T12:43:41;31.50;95.40
61092;DHT22;46975;51.898;11.444;2022-07-21T12:46:15;32.10;94.50
61092;DHT22;46975;51.898;11.444;2022-07-21T12:48:42;32.90;89.90
61092;DHT22;46975;51.898;11.444;2022-07-21T12:51:20;33.50;85.50
61092;DHT22;46975;51.898;11.444;2022-07-21T12:53:51;33.80;86.10
61092;DHT22;46975;51.898;11.444;2022-07-21T12:58:45;33.90;85.40
61092;DHT22;46975;51.898;11.444;2022-07-21T13:01:13;32.60;89.30
61092;DHT22;46975;51.898;11.444;2022-07-21T13:03:39;31.20;90.60
61092;DHT22;46975;51.898;11.444;2022-07-21T13:06:05;30.40;92.50
61092;DHT22;46975;51.898;11.444;2022-07-21T13:08:33;29.80;94.40
61092;DHT22;46975;51.898;11.444;2022-07-21T13:10:58;29.80;94.90
61092;DHT22;46975;51.898;11.444;2022-07-21T13:13:25;30.40;94.90
61092;DHT22;46975;51.898;11.444;2022-07-21T13:15:53;31.20;94.30
61092;DHT22;46975;51.898;11.444;2022-07-21T13:18:19;32.00;91.70
61092;DHT22;46975;51.898;11.444;2022-07-21T13:20:44;32.60;90.40
61092;DHT22;46975;51.898;11.444;2022-07-21T13:23:10;33.20;90.10
61092;DHT22;46975;51.898;11.444;2022-07-21T13:25:36;33.20;88.20
61092;DHT22;46975;51.898;11.444;2022-07-21T13:28:02;33.20;85.40
61092;DHT22;46975;51.898;11.444;2022-07-21T13:30:29;33.30;83.70
61092;DHT22;46975;51.898;11.444;2022-07-21T13:32:54;32.50;85.60
61092;DHT22;46975;51.898;11.444;2022-07-21T13:35:21;31.60;90.00
61092;DHT22;46975;51.898;11.444;2022-07-21T13:37:47;30.60;90.30
61092;DHT22;46975;51.898;11.444;2022-07-21T13:40:12;30.10;92.40
61092;DHT22;46975;51.898;11.444;2022-07-21T13:42:38;29.70;93.90
61092;DHT22;46975;51.898;11.444;2022-07-21T13:45:04;30.00;93.10
61092;DHT22;46975;51.898;11.444;2022-07-21T13:47:33;30.80;93.10
61092;DHT22;46975;51.898;11.444;2022-07-21T13:49:58;31.70;89.70
61092;DHT22;46975;51.898;11.444;2022-07-21T13:52:24;32.00;88.90
61092;DHT22;46975;51.898;11.444;2022-07-21T13:54:49;32.00;87.70
61092;DHT22;46975;51.898;11.444;2022-07-21T13:57:15;31.80;86.50
61092;DHT22;46975;51.898;11.444;2022-07-21T13:59:40;31.10;89.20
61092;DHT22;46975;51.898;11.444;2022-07-21T14:02:07;30.60;89.50
61092;DHT22;46975;51.898;11.444;2022-07-21T14:04:34;30.70;90.10
61092;DHT22;46975;51.898;11.444;2022-07-21T14:07:00;30.70;87.70
61092;DHT22;46975;51.898;11.444;2022-07-21T14:09:25;30.90;86.20
61092;DHT22;46975;51.898;11.444;2022-07-21T14:11:51;31.60;86.10
61092;DHT22;46975;51.898;11.444;2022-07-21T14:14:17;31.80;85.20
61092;DHT22;46975;51.898;11.444;2022-07-21T14:16:47;31.90;85.60
61092;DHT22;46975;51.898;11.444;2022-07-21T14:19:13;31.30;84.20
61092;DHT22;46975;51.898;11.444;2022-07-21T14:21:39;30.70;85.80
61092;DHT22;46975;51.898;11.444;2022-07-21T14:24:05;30.40;87.90
61092;DHT22;46975;51.898;11.444;2022-07-21T14:27:00;30.30;90.00
61092;DHT22;46975;51.898;11.444;2022-07-21T14:29:26;30.20;86.50
61092;DHT22;46975;51.898;11.444;2022-07-21T14:31:52;29.90;86.80
61092;DHT22;46975;51.898;11.444;2022-07-21T14:34:17;29.70;89.10
61092;DHT22;46975;51.898;11.444;2022-07-21T14:36:43;29.40;90.10
61092;DHT22;46975;51.898;11.444;2022-07-21T14:39:09;29.30;88.30
61092;DHT22;46975;51.898;11.444;2022-07-21T14:41:35;29.10;91.10
61092;DHT22;46975;51.898;11.444;2022-07-21T14:44:00;29.00;89.90
61092;DHT22;46975;51.898;11.444;2022-07-21T14:46:26;29.50;85.40
61092;DHT22;46975;51.898;11.444;2022-07-21T14:48:52;30.30;87.30
61092;DHT22;46975;51.898;11.444;2022-07-21T14:51:17;31.10;84.60
61092;DHT22;46975;51.898;11.444;2022-07-21T14:53:43;31.50;82.50
61092;DHT22;46975;51.898;11.444;2022-07-21T14:56:09;31.50;81.20
61092;DHT22;46975;51.898;11.444;2022-07-21T14:58:35;31.60;82.30
61092;DHT22;46975;51.898;11.444;2022-07-21T15:01:00;31.40;80.20
61092;DHT22;46975;51.898;11.444;2022-07-21T15:03:26;30.80;81.60
61092;DHT22;46975;51.898;11.444;2022-07-21T15:05:52;30.20;84.40
61092;DHT22;46975;51.898;11.444;2022-07-21T15:08:18;29.80;85.90
61092;DHT22;46975;51.898;11.444;2022-07-21T15:10:43;29.50;86.70
61092;DHT22;46975;51.898;11.444;2022-07-21T15:13:10;29.00;89.20
61092;DHT22;46975;51.898;11.444;2022-07-21T15:15:35;28.70;90.40
61092;DHT22;46975;51.898;11.444;2022-07-21T15:18:03;28.40;90.50
61092;DHT22;46975;51.898;11.444;2022-07-21T15:20:28;28.30;90.60
61092;DHT22;46975;51.898;11.444;2022-07-21T15:22:54;28.30;90.50
61092;DHT22;46975;51.898;11.444;2022-07-21T15:25:20;28.00;90.70
61092;DHT22;46975;51.898;11.444;2022-07-21T15:27:45;27.90;90.80
61092;DHT22;46975;51.898;11.444;2022-07-21T15:30:14;27.90;91.50
61092;DHT22;46975;51.898;11.444;2022-07-21T15:32:40;27.90;92.00
61092;DHT22;46975;51.898;11.444;2022-07-21T15:35:07;27.80;92.60
61092;DHT22;46975;51.898;11.444;2022-07-21T15:37:33;27.80;92.80
61092;DHT22;46975;51.898;11.444;2022-07-21T15:39:58;27.70;91.90
61092;DHT22;46975;51.898;11.444;2022-07-21T15:42:24;27.70;92.60
61092;DHT22;46975;51.898;11.444;2022-07-21T15:44:50;27.90;92.40
61092;DHT22;46975;51.898;11.444;2022-07-21T15:47:16;27.90;92.00
61092;DHT22;46975;51.898;11.444;2022-07-21T15:49:41;27.90;92.10
61092;DHT22;46975;51.898;11.444;2022-07-21T15:52:07;27.90;92.00
61092;DHT22;46975;51.898;11.444;2022-07-21T15:54:33;27.90;91.80
61092;DHT22;46975;51.898;11.444;2022-07-21T15:57:00;27.60;92.20
61092;DHT22;46975;51.898;11.444;2022-07-21T15:59:26;27.60;92.10
61092;DHT22;46975;51.898;11.444;2022-07-21T16:02:04;27.60;92.60